Language: 


Des rapports , des résumés tant et plus, au choix de chacun....


Données Historiques de Météogheer
Journalier Rapport pour Janvier 20, 2018 Unitée:  Métrique    Impériale   Les deux
Suivant Jour »
Journalier Hebdomadaire Mensuel Annuel Sur mesure
  Max: Min: Moyenne:
Température: 5.7 °C 0.3 °C 3.6 °C
Point de rosée: 6.0 °C 0.0 °C 3.6 °C
Humidité: 98% 93% 98%
Vent: 13.7km/h 0.0km/h 3.2km/h
Rafales: 19.5km/h - -
Vent- - SSE
Pression: 1010.0 hPa 996.2 hPa -
Pluie: 7.1 mm    
Historical Graphs
 
 
Données tabulaires pour Janvier 20, 2018
Heure Température Point de rosée Pression Vent Vent Rafales Humidité Pluie Taux (Horaire) Conditions
00:03 0.8 °C 0.0 °C 1010.0 hPa Calm   6.9 km/h 93% 0.0 mm
00:08 0.9 °C 0.0 °C 1010.0 hPa Calm   6.9 km/h 94% 0.0 mm
00:13 0.9 °C 0.0 °C 1010.0 hPa WSW 2.6 km/h 5.8 km/h 94% 0.0 mm
00:18 1.0 °C 0.0 °C 1010.0 hPa Calm   2.6 km/h 94% 0.0 mm
00:23 1.0 °C 0.0 °C 1010.0 hPa West 6.9 km/h 6.9 km/h 94% 0.0 mm
00:28 1.1 °C 0.0 °C 1010.0 hPa Calm   7.6 km/h 94% 0.0 mm
00:33 1.1 °C 0.0 °C 1009.0 hPa WSW 4.7 km/h 7.6 km/h 94% 0.0 mm
00:38 1.2 °C 1.0 °C 1009.0 hPa Calm   6.1 km/h 94% 0.0 mm
00:43 1.2 °C 1.0 °C 1009.0 hPa Calm   6.1 km/h 94% 0.0 mm
00:48 1.3 °C 1.0 °C 1009.0 hPa Calm   4.3 km/h 95% 0.0 mm
00:53 1.3 °C 1.0 °C 1009.0 hPa Calm   4.3 km/h 95% 0.0 mm
00:58 1.3 °C 1.0 °C 1009.0 hPa Calm   5.0 km/h 95% 0.0 mm
01:03 1.2 °C 1.0 °C 1009.0 hPa Calm   5.0 km/h 95% 0.0 mm
01:08 1.2 °C 1.0 °C 1009.0 hPa West 4.3 km/h 5.0 km/h 94% 0.0 mm
01:14 1.2 °C 1.0 °C 1009.0 hPa Calm   6.9 km/h 94% 0.0 mm
01:19 1.2 °C 1.0 °C 1009.0 hPa Calm   6.9 km/h 94% 0.0 mm
01:24 1.2 °C 1.0 °C 1009.0 hPa SW 1.8 km/h 6.4 km/h 94% 0.0 mm
01:29 1.2 °C 1.0 °C 1009.0 hPa WSW 8.7 km/h 8.7 km/h 95% 0.0 mm
01:34 1.4 °C 1.0 °C 1009.0 hPa Calm   8.7 km/h 95% 0.0 mm
01:39 1.6 °C 1.0 °C 1009.0 hPa Calm   7.9 km/h 96% 0.0 mm
01:44 1.6 °C 1.0 °C 1008.0 hPa WSW 5.8 km/h 9.0 km/h 96% 0.0 mm
01:49 1.7 °C 1.0 °C 1008.0 hPa Calm   9.0 km/h 96% 0.0 mm
01:54 1.6 °C 1.0 °C 1008.0 hPa Calm   8.7 km/h 96% 0.0 mm
01:59 1.6 °C 1.0 °C 1009.0 hPa Calm   1.8 km/h 96% 0.0 mm
02:04 1.6 °C 1.0 °C 1009.0 hPa Calm   4.0 km/h 96% 0.0 mm
02:09 1.5 °C 1.0 °C 1009.0 hPa WSW 4.3 km/h 5.5 km/h 95% 0.0 mm
02:14 1.4 °C 1.0 °C 1009.0 hPa Calm   5.5 km/h 95% 0.0 mm
02:19 1.3 °C 1.0 °C 1009.0 hPa Calm   2.1 km/h 95% 0.0 mm
02:24 1.1 °C 0.0 °C 1009.0 hPa Calm     94% 0.0 mm
02:29 1.1 °C 1.0 °C 1008.0 hPa Calm   4.0 km/h 95% 0.0 mm
02:34 1.0 °C 0.0 °C 1008.0 hPa Calm   4.0 km/h 94% 0.0 mm
02:39 0.9 °C 1.0 °C 1008.0 hPa Calm   2.1 km/h 95% 0.0 mm
02:44 0.7 °C 0.0 °C 1009.0 hPa Calm     94% 0.0 mm
02:49 0.5 °C 0.0 °C 1009.0 hPa Calm   2.6 km/h 94% 0.0 mm
02:54 0.4 °C 0.0 °C 1009.0 hPa Calm   2.6 km/h 94% 0.0 mm
02:59 0.4 °C 0.0 °C 1009.0 hPa Calm   2.6 km/h 94% 0.0 mm
03:04 0.3 °C 0.0 °C 1009.0 hPa Calm   2.6 km/h 95% 0.0 mm
03:09 0.3 °C 0.0 °C 1009.0 hPa Calm     95% 0.0 mm
03:14 0.3 °C 0.0 °C 1009.0 hPa Calm     95% 0.0 mm
03:20 0.3 °C 0.0 °C 1009.0 hPa Calm     96% 0.0 mm
03:25 0.4 °C 0.0 °C 1009.0 hPa Calm     96% 0.0 mm
03:30 0.4 °C 0.0 °C 1008.0 hPa Calm     97% 0.0 mm
03:35 0.4 °C 0.0 °C 1008.0 hPa Calm     97% 0.0 mm
03:40 0.5 °C 1.0 °C 1008.0 hPa Calm   6.1 km/h 97% 0.0 mm
03:45 0.8 °C 1.0 °C 1008.0 hPa Calm   6.1 km/h 98% 0.0 mm
03:50 0.8 °C 1.0 °C 1008.0 hPa SSW 3.2 km/h 3.5 km/h 98% 0.0 mm
03:55 0.8 °C 1.0 °C 1008.0 hPa North 5.5 km/h 5.5 km/h 98% 0.0 mm
04:00 0.9 °C 1.0 °C 1007.0 hPa South 4.3 km/h 7.6 km/h 98% 0.0 mm
04:05 1.0 °C 1.0 °C 1007.0 hPa Calm   7.6 km/h 98% 0.0 mm
04:10 1.0 °C 1.0 °C 1007.0 hPa Calm   6.9 km/h 98% 0.0 mm
04:15 1.1 °C 1.0 °C 1008.0 hPa Calm   2.6 km/h 98% 0.0 mm
04:20 1.1 °C 1.0 °C 1008.0 hPa Calm     98% 0.0 mm
04:25 1.2 °C 1.0 °C 1008.0 hPa Calm     98% 0.0 mm
04:30 1.3 °C 1.0 °C 1007.0 hPa Calm   4.7 km/h 98% 0.0 mm
04:35 1.3 °C 1.0 °C 1007.0 hPa Calm   5.0 km/h 98% 0.0 mm
04:40 1.3 °C 1.0 °C 1007.0 hPa SSW 3.5 km/h 5.0 km/h 98% 0.0 mm
04:45 1.4 °C 1.0 °C 1007.0 hPa Calm   5.0 km/h 98% 0.0 mm
04:50 1.5 °C 2.0 °C 1007.0 hPa SSW 5.0 km/h 5.0 km/h 98% 0.0 mm
04:55 1.6 °C 2.0 °C 1007.0 hPa SSW 6.1 km/h 7.6 km/h 98% 0.0 mm
05:01 1.8 °C 2.0 °C 1007.0 hPa South 5.5 km/h 10.5 km/h 98% 0.0 mm
05:06 2.0 °C 2.0 °C 1007.0 hPa South 7.9 km/h 10.5 km/h 98% 0.0 mm
05:11 2.1 °C 2.0 °C 1007.0 hPa SSW 6.9 km/h 10.5 km/h 98% 0.0 mm
05:16 2.2 °C 2.0 °C 1007.0 hPa SSW 10.5 km/h 10.8 km/h 98% 0.0 mm
05:21 2.4 °C 3.0 °C 1007.0 hPa SW 9.7 km/h 15.8 km/h 98% 0.3 mm
05:26 2.6 °C 3.0 °C 1007.0 hPa Calm   15.8 km/h 98% 0.5 mm
05:31 2.7 °C 3.0 °C 1007.0 hPa SW 4.7 km/h 13.0 km/h 98% 0.5 mm
05:36 2.7 °C 3.0 °C 1007.0 hPa Calm   10.5 km/h 98% 0.5 mm
05:41 2.8 °C 3.0 °C 1007.0 hPa SW 7.6 km/h 8.7 km/h 98% 0.5 mm
05:46 2.8 °C 3.0 °C 1006.0 hPa SSW 1.4 km/h 8.7 km/h 98% 0.5 mm
05:51 2.8 °C 3.0 °C 1006.0 hPa South 5.5 km/h 6.9 km/h 98% 0.5 mm
05:56 2.8 °C 3.0 °C 1006.0 hPa SSW 5.0 km/h 10.5 km/h 98% 0.5 mm
06:01 2.8 °C 3.0 °C 1006.0 hPa SW 4.7 km/h 10.5 km/h 98% 0.5 mm
06:06 2.8 °C 3.0 °C 1006.0 hPa South 5.8 km/h 10.5 km/h 98% 0.5 mm
06:11 2.9 °C 3.0 °C 1006.0 hPa SSW 5.8 km/h 10.8 km/h 98% 0.5 mm
06:16 2.9 °C 3.0 °C 1005.0 hPa Calm   10.8 km/h 98% 0.5 mm
06:21 2.9 °C 3.0 °C 1005.0 hPa SSW 6.9 km/h 10.1 km/h 98% 0.5 mm
06:26 3.0 °C 3.0 °C 1005.0 hPa South 2.6 km/h 10.1 km/h 98% 0.3 mm
06:31 3.0 °C 3.0 °C 1005.0 hPa South 4.0 km/h 10.1 km/h 98% 0.3 mm
06:36 3.0 °C 3.0 °C 1005.0 hPa SSW 1.8 km/h 12.2 km/h 98% 0.3 mm
06:41 3.1 °C 3.0 °C 1005.0 hPa South 4.7 km/h 12.2 km/h 98% 0.3 mm
06:46 3.1 °C 3.0 °C 1005.0 hPa SSW 9.0 km/h 9.0 km/h 98% 0.3 mm
06:51 3.1 °C 3.0 °C 1005.0 hPa Calm   9.0 km/h 98% 0.5 mm
06:56 3.1 °C 3.0 °C 1005.0 hPa South 6.9 km/h 7.9 km/h 98% 0.5 mm
07:01 3.1 °C 3.0 °C 1005.0 hPa South 7.9 km/h 10.1 km/h 98% 0.5 mm
07:07 3.1 °C 3.0 °C 1005.0 hPa South 4.3 km/h 10.8 km/h 98% 0.5 mm
07:12 3.2 °C 3.0 °C 1005.0 hPa South 6.9 km/h 10.8 km/h 98% 0.5 mm
07:17 3.2 °C 3.0 °C 1005.0 hPa South 6.9 km/h 10.5 km/h 98% 0.5 mm
07:22 3.3 °C 3.0 °C 1005.0 hPa South 7.6 km/h 16.6 km/h 98% 0.3 mm
07:27 3.3 °C 3.0 °C 1005.0 hPa South 9.0 km/h 16.6 km/h 98% 0.3 mm
07:32 3.3 °C 3.0 °C 1005.0 hPa South 6.4 km/h 10.5 km/h 98% 0.8 mm
07:37 3.3 °C 3.0 °C 1005.0 hPa South 12.6 km/h 13.7 km/h 98% 0.8 mm
07:42 3.4 °C 3.0 °C 1005.0 hPa South 8.7 km/h 19.5 km/h 98% 0.8 mm
07:47 3.4 °C 3.0 °C 1003.9 hPa SSW 9.7 km/h 19.5 km/h 98% 0.8 mm
07:52 3.4 °C 3.0 °C 1003.9 hPa South 4.7 km/h 14.0 km/h 98% 0.3 mm
07:57 3.4 °C 3.0 °C 1003.9 hPa SSW 4.7 km/h 10.8 km/h 98% 0.3 mm
08:02 3.5 °C 4.0 °C 1003.9 hPa SSW 5.0 km/h 12.2 km/h 98% 0.3 mm
08:07 3.5 °C 4.0 °C 1003.9 hPa South 5.0 km/h 12.2 km/h 98% 0.3 mm
08:12 3.6 °C 4.0 °C 1003.9 hPa South 8.7 km/h 11.1 km/h 98% 0.8 mm
08:17 3.5 °C 4.0 °C 1003.9 hPa SSW 6.1 km/h 11.1 km/h 98% 0.8 mm
08:22 3.5 °C 4.0 °C 1003.9 hPa South 6.9 km/h 10.1 km/h 98% 0.8 mm
08:27 3.5 °C 4.0 °C 1003.9 hPa SSE 6.4 km/h 8.7 km/h 98% 0.8 mm
08:32 3.5 °C 4.0 °C 1002.9 hPa SSW 8.7 km/h 8.7 km/h 98% 0.3 mm
08:37 3.5 °C 4.0 °C 1002.9 hPa SSE 6.1 km/h 8.7 km/h 98% 0.3 mm
08:42 3.5 °C 4.0 °C 1002.9 hPa South 6.1 km/h 10.1 km/h 98% 0.3 mm
08:47 3.5 °C 4.0 °C 1002.9 hPa SSW 6.9 km/h 10.1 km/h 98% 0.3 mm
08:53 3.5 °C 4.0 °C 1002.9 hPa South 6.9 km/h 9.7 km/h 98% 0.5 mm
08:58 3.6 °C 4.0 °C 1002.9 hPa Calm   10.5 km/h 98% 0.5 mm
09:03 3.6 °C 4.0 °C 1002.9 hPa Calm   10.5 km/h 98% 0.5 mm
09:08 3.6 °C 4.0 °C 1002.9 hPa SSW 7.6 km/h 9.3 km/h 98% 0.3 mm
09:13 3.6 °C 4.0 °C 1002.9 hPa South 5.8 km/h 9.3 km/h 98% 0.3 mm
09:18 3.6 °C 4.0 °C 1001.9 hPa SSW 10.5 km/h 10.5 km/h 98% 0.3 mm
09:23 3.7 °C 4.0 °C 1001.9 hPa SSW 6.1 km/h 10.5 km/h 98% 0.3 mm
09:28 3.7 °C 4.0 °C 1001.9 hPa SSW 9.7 km/h 10.5 km/h 98% 0.3 mm
09:33 3.7 °C 4.0 °C 1001.9 hPa South 6.1 km/h 10.1 km/h 98% 0.3 mm
09:38 3.8 °C 4.0 °C 1001.9 hPa South 9.3 km/h 12.6 km/h 98% 0.3 mm
09:43 3.8 °C 4.0 °C 1001.9 hPa SSE 8.7 km/h 12.6 km/h 98% 0.3 mm
09:48 3.8 °C 4.0 °C 1003.9 hPa South 9.0 km/h 10.5 km/h 98% 0.3 mm
09:53 3.9 °C 4.0 °C 1003.9 hPa South 3.2 km/h 10.5 km/h 98% 0.0 mm
09:58 3.9 °C 4.0 °C 1003.9 hPa Calm   9.0 km/h 98% 0.3 mm
10:03 3.9 °C 4.0 °C 1001.9 hPa SSE 4.3 km/h 12.2 km/h 98% 0.3 mm
10:08 3.9 °C 4.0 °C 1001.9 hPa Calm   12.2 km/h 98% 0.3 mm
10:13 4.0 °C 4.0 °C 1001.9 hPa South 6.1 km/h 8.7 km/h 98% 0.3 mm
10:18 4.0 °C 4.0 °C 1001.9 hPa Calm   8.7 km/h 98% 0.3 mm
10:23 4.0 °C 4.0 °C 1001.9 hPa South 6.4 km/h 9.0 km/h 98% 0.3 mm
10:28 4.0 °C 4.0 °C 1001.9 hPa South 3.2 km/h 9.7 km/h 98% 0.3 mm
10:33 4.0 °C 4.0 °C 1001.9 hPa South 1.4 km/h 9.7 km/h 98% 0.3 mm
10:38 4.1 °C 4.0 °C 1001.9 hPa South 6.1 km/h 12.6 km/h 98% 0.3 mm
10:39 4.1 °C 4.0 °C 1001.9 hPa SSE 2.6 km/h 12.6 km/h 98% 0.3 mm
10:44 4.1 °C 4.0 °C 1001.9 hPa Calm   12.6 km/h 98% 0.5 mm
10:49 4.1 °C 4.0 °C 1001.9 hPa South 6.9 km/h 9.3 km/h 98% 0.5 mm
10:54 4.1 °C 4.0 °C 1001.9 hPa SSE 2.6 km/h 9.3 km/h 98% 0.5 mm
10:59 4.2 °C 4.0 °C 1000.9 hPa Calm   9.0 km/h 98% 0.3 mm
11:04 4.2 °C 4.0 °C 1000.9 hPa Calm   7.2 km/h 98% 0.5 mm
11:09 4.3 °C 4.0 °C 1000.9 hPa South 7.6 km/h 7.6 km/h 98% 0.5 mm
11:14 4.3 °C 4.0 °C 1000.9 hPa SSE 4.3 km/h 7.9 km/h 98% 0.5 mm
11:19 4.3 °C 4.0 °C 1000.9 hPa Calm   7.9 km/h 98% 0.5 mm
11:24 4.3 °C 4.0 °C 1000.9 hPa Calm   9.3 km/h 98% 0.8 mm
11:29 4.4 °C 4.0 °C 999.9 hPa SSE 4.7 km/h 9.3 km/h 98% 0.8 mm
11:34 4.4 °C 4.0 °C 999.9 hPa Calm   7.2 km/h 98% 1.3 mm
11:39 4.4 °C 4.0 °C 999.9 hPa South 6.1 km/h 6.4 km/h 98% 1.3 mm
11:44 4.5 °C 5.0 °C 1000.9 hPa Calm   6.1 km/h 98% 1.0 mm
11:49 4.5 °C 5.0 °C 1000.9 hPa Calm   6.9 km/h 98% 1.3 mm
11:54 4.6 °C 5.0 °C 1000.9 hPa ESE 4.0 km/h 10.5 km/h 98% 1.3 mm
11:59 4.6 °C 5.0 °C 999.9 hPa SSE 4.7 km/h 10.5 km/h 98% 1.3 mm
12:04 4.7 °C 5.0 °C 999.9 hPa Calm   10.1 km/h 98% 1.0 mm
12:09 4.7 °C 5.0 °C 999.9 hPa Calm   9.7 km/h 98% 1.0 mm
12:14 4.7 °C 5.0 °C 999.9 hPa SSE 1.8 km/h 10.1 km/h 98% 1.3 mm
12:19 4.7 °C 5.0 °C 999.9 hPa Calm   10.1 km/h 98% 1.0 mm
12:25 4.8 °C 5.0 °C 999.9 hPa Calm   5.5 km/h 98% 1.0 mm
12:30 4.8 °C 5.0 °C 998.9 hPa Calm   6.9 km/h 98% 1.0 mm
12:35 4.9 °C 5.0 °C 998.9 hPa ESE 4.3 km/h 6.9 km/h 98% 0.5 mm
12:40 4.9 °C 5.0 °C 998.9 hPa South 6.4 km/h 10.5 km/h 98% 0.5 mm
12:45 5.0 °C 5.0 °C 997.9 hPa Calm   10.5 km/h 98% 0.8 mm
12:50 5.0 °C 5.0 °C 997.9 hPa East 3.2 km/h 6.4 km/h 98% 0.5 mm
12:55 5.0 °C 5.0 °C 997.9 hPa ESE 2.1 km/h 6.4 km/h 98% 0.5 mm
13:00 5.0 °C 5.0 °C 998.9 hPa ESE 2.1 km/h 6.4 km/h 98% 0.5 mm
13:05 5.0 °C 5.0 °C 998.9 hPa Calm   6.4 km/h 98% 0.5 mm
13:10 5.1 °C 5.0 °C 998.9 hPa ESE 4.7 km/h 9.0 km/h 98% 0.3 mm
13:15 5.1 °C 5.0 °C 998.9 hPa ESE 5.0 km/h 9.7 km/h 98% 0.5 mm
13:20 5.1 °C 5.0 °C 998.9 hPa SSE 5.0 km/h 9.7 km/h 98% 0.5 mm
13:25 5.1 °C 5.0 °C 998.9 hPa Calm   9.3 km/h 98% 0.5 mm
13:30 5.2 °C 5.0 °C 997.9 hPa Calm   7.6 km/h 98% 0.5 mm
13:35 5.2 °C 5.0 °C 997.9 hPa Calm   7.6 km/h 98% 0.5 mm
13:40 5.3 °C 6.0 °C 997.9 hPa ESE 5.5 km/h 7.6 km/h 98% 0.8 mm
13:45 5.3 °C 6.0 °C 997.9 hPa ESE 4.7 km/h 6.1 km/h 98% 0.5 mm
13:50 5.4 °C 6.0 °C 997.9 hPa East 7.9 km/h 7.9 km/h 98% 0.5 mm
13:55 5.4 °C 6.0 °C 997.9 hPa East 2.1 km/h 7.9 km/h 98% 0.5 mm
13:56 5.4 °C 6.0 °C 997.9 hPa Calm   7.9 km/h 98% 0.5 mm
14:01 5.4 °C 6.0 °C 997.9 hPa ENE 5.5 km/h 6.9 km/h 98% 0.5 mm
14:06 5.3 °C 6.0 °C 997.9 hPa Calm   6.9 km/h 98% 0.5 mm
14:11 5.3 °C 6.0 °C 997.9 hPa ENE 3.2 km/h 5.5 km/h 98% 0.5 mm
14:16 5.3 °C 6.0 °C 997.9 hPa East 6.9 km/h 7.2 km/h 98% 0.5 mm
14:22 5.3 °C 6.0 °C 997.9 hPa Calm   7.2 km/h 98% 0.5 mm
14:27 5.3 °C 6.0 °C 997.9 hPa Calm   9.0 km/h 98% 0.5 mm
14:32 5.3 °C 6.0 °C 996.8 hPa East 5.5 km/h 9.0 km/h 98% 0.5 mm
14:37 5.4 °C 6.0 °C 996.8 hPa East 4.3 km/h 6.4 km/h 98% 1.0 mm
14:42 5.3 °C 6.0 °C 996.8 hPa NE 8.7 km/h 9.0 km/h 98% 0.8 mm
14:47 5.3 °C 6.0 °C 996.8 hPa ENE 4.0 km/h 9.0 km/h 98% 0.8 mm
14:52 5.4 °C 6.0 °C 996.8 hPa NE 4.0 km/h 9.0 km/h 98% 0.8 mm
14:57 5.4 °C 6.0 °C 996.8 hPa ESE 1.8 km/h 9.0 km/h 98% 0.8 mm
15:02 5.4 °C 6.0 °C 996.8 hPa East 5.8 km/h 7.6 km/h 98% 0.8 mm
15:07 5.5 °C 6.0 °C 996.8 hPa Calm   7.6 km/h 98% 0.3 mm
15:12 5.6 °C 6.0 °C 996.8 hPa East 5.5 km/h 7.6 km/h 98% 0.3 mm
15:17 5.7 °C 6.0 °C 996.8 hPa Calm   7.6 km/h 98% 0.3 mm
15:22 5.6 °C 6.0 °C 996.8 hPa Calm   8.7 km/h 98% 0.3 mm
15:27 5.6 °C 6.0 °C 996.8 hPa ENE 2.1 km/h 8.7 km/h 98% 0.3 mm
15:32 5.5 °C 6.0 °C 996.2 hPa ENE 5.0 km/h 6.9 km/h 98% 0.3 mm
15:37 5.5 °C 6.0 °C 996.2 hPa Calm   6.9 km/h 98% 0.0 mm
15:42 5.5 °C 6.0 °C 996.2 hPa Calm   5.5 km/h 98% 0.3 mm
15:47 5.5 °C 6.0 °C 996.8 hPa Calm     98% 0.3 mm
15:52 5.5 °C 6.0 °C 996.8 hPa Calm   6.1 km/h 98% 0.3 mm
15:58 5.4 °C 6.0 °C 996.8 hPa Calm   6.1 km/h 98% 0.3 mm
16:03 5.4 °C 6.0 °C 996.8 hPa East 5.0 km/h 5.0 km/h 98% 0.3 mm
16:08 5.4 °C 6.0 °C 996.8 hPa Calm   5.0 km/h 98% 0.3 mm
16:13 5.4 °C 6.0 °C 996.8 hPa Calm   5.0 km/h 98% 0.3 mm
16:18 5.4 °C 6.0 °C 996.8 hPa Calm   5.5 km/h 98% 0.3 mm
16:23 5.3 °C 6.0 °C 996.8 hPa Calm   5.8 km/h 98% 0.3 mm
16:28 5.3 °C 6.0 °C 996.8 hPa Calm   5.8 km/h 98% 0.3 mm
16:33 5.3 °C 6.0 °C 996.8 hPa Calm   5.5 km/h 98% 0.3 mm
16:38 5.3 °C 6.0 °C 996.8 hPa Calm     98% 0.3 mm
16:43 5.3 °C 6.0 °C 996.8 hPa Calm     98% 0.0 mm
16:48 5.3 °C 6.0 °C 997.9 hPa Calm     98% 0.0 mm
16:53 5.3 °C 6.0 °C 997.9 hPa Calm     98% 0.0 mm
16:58 5.3 °C 6.0 °C 997.9 hPa Calm     98% 0.0 mm
17:03 5.2 °C 5.0 °C 997.9 hPa Calm     98% 0.3 mm
17:08 5.2 °C 5.0 °C 997.9 hPa Calm     98% 0.3 mm
17:13 5.1 °C 5.0 °C 997.9 hPa Calm   5.0 km/h 98% 0.3 mm
17:18 5.1 °C 5.0 °C 997.9 hPa Calm   5.0 km/h 98% 0.3 mm
17:23 5.0 °C 5.0 °C 997.9 hPa Calm     98% 0.3 mm
17:28 5.0 °C 5.0 °C 997.9 hPa Calm     98% 0.3 mm
17:33 5.0 °C 5.0 °C 997.9 hPa Calm     98% 0.3 mm
17:38 4.9 °C 5.0 °C 997.9 hPa Calm     98% 0.3 mm
17:44 4.9 °C 5.0 °C 997.9 hPa Calm     98% 0.3 mm
17:49 4.9 °C 5.0 °C 997.9 hPa Calm     98% 0.3 mm
17:54 4.8 °C 5.0 °C 997.9 hPa Calm     98% 0.5 mm
17:59 4.8 °C 5.0 °C 997.9 hPa Calm     98% 0.5 mm
18:04 4.8 °C 5.0 °C 997.9 hPa Calm     98% 0.3 mm
18:09 4.8 °C 5.0 °C 997.9 hPa Calm     98% 0.3 mm
18:14 4.8 °C 5.0 °C 998.9 hPa Calm     98% 0.3 mm
18:19 4.8 °C 5.0 °C 998.9 hPa Calm     98% 0.3 mm
18:24 4.8 °C 5.0 °C 998.9 hPa Calm     98% 0.3 mm
18:29 4.8 °C 5.0 °C 998.9 hPa Calm     98% 0.3 mm
18:34 4.8 °C 5.0 °C 998.9 hPa Calm     98% 0.3 mm
18:39 4.8 °C 5.0 °C 998.9 hPa Calm   4.0 km/h 98% 0.3 mm
18:44 4.8 °C 5.0 °C 998.9 hPa Calm   5.8 km/h 98% 0.3 mm
18:49 4.7 °C 5.0 °C 998.9 hPa Calm   6.4 km/h 98% 0.3 mm
18:54 4.7 °C 5.0 °C 998.9 hPa Calm   6.4 km/h 98% 0.3 mm
18:59 4.7 °C 5.0 °C 998.9 hPa Calm   5.5 km/h 98% 0.3 mm
19:04 4.7 °C 5.0 °C 998.9 hPa Calm   3.2 km/h 98% 0.3 mm
19:09 4.7 °C 5.0 °C 998.9 hPa NE 5.8 km/h 5.8 km/h 98% 0.3 mm
19:14 4.7 °C 5.0 °C 998.9 hPa NNE 1.4 km/h 5.8 km/h 98% 0.3 mm
19:19 4.6 °C 5.0 °C 998.9 hPa NE 4.0 km/h 7.9 km/h 98% 0.3 mm
19:24 4.6 °C 5.0 °C 998.9 hPa NE 9.0 km/h 9.0 km/h 98% 0.3 mm
19:29 4.6 °C 5.0 °C 998.9 hPa Calm   9.0 km/h 98% 0.3 mm
19:34 4.6 °C 5.0 °C 998.9 hPa NE 6.9 km/h 9.0 km/h 98% 0.3 mm
19:39 4.6 °C 5.0 °C 998.9 hPa NE 6.9 km/h 9.3 km/h 98% 0.3 mm
19:44 4.5 °C 5.0 °C 999.9 hPa North 10.1 km/h 10.1 km/h 98% 0.3 mm
19:49 4.5 °C 5.0 °C 999.9 hPa Calm   10.1 km/h 98% 0.0 mm
19:54 4.5 °C 5.0 °C 999.9 hPa NNE 1.4 km/h 9.7 km/h 98% 0.0 mm
20:00 4.5 °C 5.0 °C 999.9 hPa Calm   9.7 km/h 98% 0.0 mm
20:05 4.4 °C 4.0 °C 999.9 hPa Calm   6.4 km/h 98% 0.0 mm
20:10 4.4 °C 4.0 °C 999.9 hPa Calm   9.0 km/h 98% 0.0 mm
20:15 4.4 °C 4.0 °C 1000.9 hPa NNE 2.6 km/h 9.0 km/h 98% 0.0 mm
20:20 4.4 °C 4.0 °C 1000.9 hPa NE 2.1 km/h 10.1 km/h 98% 0.0 mm
20:25 4.3 °C 4.0 °C 1000.9 hPa NNE 7.9 km/h 11.9 km/h 98% 0.0 mm
20:30 4.3 °C 4.0 °C 1000.9 hPa NNE 7.9 km/h 11.9 km/h 98% 0.0 mm
20:35 4.3 °C 4.0 °C 1000.9 hPa NE 8.7 km/h 11.9 km/h 98% 0.0 mm
20:40 4.3 °C 4.0 °C 1000.9 hPa North 7.9 km/h 10.5 km/h 98% 0.0 mm
20:45 4.2 °C 4.0 °C 1000.9 hPa NE 5.0 km/h 11.6 km/h 98% 0.0 mm
20:51 4.2 °C 4.0 °C 1000.9 hPa NNE 5.0 km/h 11.6 km/h 98% 0.0 mm
20:56 4.1 °C 4.0 °C 1000.9 hPa NNE 9.0 km/h 10.5 km/h 98% 0.0 mm
21:01 4.1 °C 4.0 °C 1000.9 hPa Calm   10.1 km/h 98% 0.0 mm
21:06 4.1 °C 4.0 °C 1000.9 hPa NE 8.7 km/h 10.1 km/h 98% 0.0 mm
21:11 4.0 °C 4.0 °C 1000.9 hPa NE 2.6 km/h 10.1 km/h 98% 0.0 mm
21:16 4.0 °C 4.0 °C 1001.9 hPa NNW 9.3 km/h 10.5 km/h 98% 0.0 mm
21:21 4.0 °C 4.0 °C 1001.9 hPa ENE 5.5 km/h 10.5 km/h 98% 0.0 mm
21:26 3.9 °C 4.0 °C 1001.9 hPa NNE 4.3 km/h 9.7 km/h 98% 0.0 mm
21:31 3.9 °C 4.0 °C 1002.9 hPa NNE 4.3 km/h 9.3 km/h 98% 0.0 mm
21:36 3.8 °C 4.0 °C 1002.9 hPa NNE 4.7 km/h 9.3 km/h 98% 0.0 mm
21:41 3.8 °C 4.0 °C 1002.9 hPa North 2.1 km/h 9.0 km/h 98% 0.0 mm
21:46 3.8 °C 4.0 °C 1002.9 hPa North 6.9 km/h 9.0 km/h 98% 0.0 mm
21:51 3.8 °C 4.0 °C 1002.9 hPa NNE 8.7 km/h 9.3 km/h 98% 0.0 mm
21:56 3.8 °C 4.0 °C 1002.9 hPa North 6.1 km/h 9.3 km/h 98% 0.0 mm
22:01 3.7 °C 4.0 °C 1002.9 hPa North 7.9 km/h 9.7 km/h 98% 0.0 mm
22:06 3.7 °C 4.0 °C 1002.9 hPa NE 6.4 km/h 12.2 km/h 98% 0.0 mm
22:11 3.8 °C 4.0 °C 1002.9 hPa North 6.9 km/h 12.2 km/h 98% 0.0 mm
22:17 3.7 °C 4.0 °C 1002.9 hPa NNE 7.9 km/h 11.9 km/h 98% 0.0 mm
22:22 3.6 °C 4.0 °C 1002.9 hPa North 9.7 km/h 13.0 km/h 98% 0.0 mm
22:27 3.5 °C 4.0 °C 1002.9 hPa North 6.4 km/h 16.9 km/h 98% 0.0 mm
22:32 3.5 °C 4.0 °C 1003.9 hPa North 6.4 km/h 16.9 km/h 98% 0.0 mm
22:37 3.4 °C 3.0 °C 1003.9 hPa North 12.2 km/h 12.6 km/h 98% 0.0 mm
22:42 3.4 °C 3.0 °C 1003.9 hPa NE 10.5 km/h 13.7 km/h 98% 0.0 mm
22:47 3.4 °C 3.0 °C 1005.0 hPa North 13.7 km/h 13.7 km/h 98% 0.0 mm
22:52 3.4 °C 3.0 °C 1005.0 hPa NE 11.9 km/h 13.7 km/h 98% 0.0 mm
22:57 3.4 °C 3.0 °C 1005.0 hPa North 11.6 km/h 13.7 km/h 98% 0.0 mm
23:02 3.3 °C 3.0 °C 1003.9 hPa NNE 6.9 km/h 11.9 km/h 98% 0.0 mm
23:07 3.3 °C 3.0 °C 1003.9 hPa NNW 5.8 km/h 11.6 km/h 98% 0.0 mm
23:12 3.3 °C 3.0 °C 1003.9 hPa NNW 5.8 km/h 7.6 km/h 98% 0.0 mm
23:17 3.3 °C 3.0 °C 1005.0 hPa Calm   5.8 km/h 98% 0.0 mm
23:22 3.3 °C 3.0 °C 1005.0 hPa North 1.4 km/h 5.8 km/h 98% 0.0 mm
23:28 3.3 °C 3.0 °C 1005.0 hPa Calm   1.4 km/h 98% 0.0 mm
23:33 3.3 °C 3.0 °C 1005.0 hPa Calm   1.4 km/h 98% 0.0 mm
23:38 3.3 °C 3.0 °C 1005.0 hPa Calm     98% 0.0 mm
23:43 3.3 °C 3.0 °C 1005.0 hPa Calm     98% 0.0 mm
23:48 3.3 °C 3.0 °C 1005.0 hPa Calm     98% 0.0 mm
23:53 3.2 °C 3.0 °C 1005.0 hPa Calm     98% 0.0 mm
23:58 3.3 °C 3.0 °C 1005.0 hPa Calm     98% 0.0 mm
Données Historique de Météo Turbie

Mise a jour : 24/05/2018 15:46:13
Généré par Cumulus 1.9.4 (1099)